Time;durP1;ratioP1;P1;durP2;ratioP2;P2;SDS_P1;SDS_P2;PMS_P1;PMS_P2;Temp;Humidity;BMP_temperature;BMP_pressure;BME280_temperature;BME280_humidity;BME280_pressure;Samples;Min_cycle;Max_cycle;Signal;HPM_P1;HPM_P2
2023/03/11 00:02:02;;;;;;;1.00;0.90;;;2.50;99.90;;;;;;5062309;28;20181;-71
2023/03/11 00:04:27;;;;;;;5.67;1.50;;;2.40;99.90;;;;;;5063370;28;20182;-71
2023/03/11 00:06:53;;;;;;;1.73;1.00;;;2.40;99.90;;;;;;5069080;28;20217;-71
2023/03/11 00:09:18;;;;;;;1.37;1.20;;;2.40;99.90;;;;;;5055092;28;20205;-71
2023/03/11 00:11:44;;;;;;;2.10;1.43;;;2.40;99.90;;;;;;5044511;28;20264;-71
2023/03/11 00:14:09;;;;;;;1.67;1.33;;;2.40;99.90;;;;;;5057897;28;20185;-71
2023/03/11 00:16:35;;;;;;;1.43;1.30;;;2.40;99.90;;;;;;5058658;28;20552;-71
2023/03/11 00:19:00;;;;;;;1.83;1.73;;;2.40;99.90;;;;;;5059503;28;20236;-71
2023/03/11 00:21:26;;;;;;;1.53;1.33;;;2.40;99.90;;;;;;5043785;28;20194;-71
2023/03/11 00:23:51;;;;;;;1.40;1.20;;;2.40;99.90;;;;;;5059600;28;20219;-71
2023/03/11 00:26:17;;;;;;;1.93;1.50;;;2.40;99.90;;;;;;5058409;28;20182;-71
2023/03/11 00:28:42;;;;;;;1.53;1.43;;;2.30;99.90;;;;;;5048580;28;20221;-71
2023/03/11 00:31:11;;;;;;;1.40;1.30;;;2.40;99.90;;;;;;5051073;28;20832;-72
2023/03/11 00:33:38;;;;;;;1.60;1.20;;;2.40;99.90;;;;;;5056364;28;20177;-71
2023/03/11 00:36:05;;;;;;;1.70;1.60;;;2.50;99.90;;;;;;5061806;28;20466;-71
2023/03/11 00:38:31;;;;;;;1.80;1.70;;;2.50;99.90;;;;;;5055485;28;20948;-71
2023/03/11 00:40:57;;;;;;;2.47;1.47;;;2.50;99.90;;;;;;5048894;28;20527;-71
2023/03/11 00:43:22;;;;;;;1.33;1.20;;;2.60;99.90;;;;;;5050743;28;20201;-71
2023/03/11 00:45:47;;;;;;;1.50;1.40;;;2.60;99.90;;;;;;5058206;28;20181;-71
2023/03/11 00:48:14;;;;;;;2.20;1.50;;;2.60;99.90;;;;;;5059122;28;20212;-71
2023/03/11 00:50:40;;;;;;;3.80;1.37;;;2.60;99.90;;;;;;5052175;28;20189;-71
2023/03/11 00:53:05;;;;;;;2.57;1.30;;;2.70;99.90;;;;;;5051418;28;20435;-71
2023/03/11 00:55:32;;;;;;;1.50;1.40;;;2.70;99.90;;;;;;5044928;28;20831;-71
2023/03/11 00:58:01;;;;;;;3.90;1.53;;;2.80;99.90;;;;;;5050732;28;20197;-71
2023/03/11 01:00:28;;;;;;;1.70;1.50;;;2.80;99.90;;;;;;5060869;28;20625;-71
2023/03/11 01:02:55;;;;;;;1.60;1.33;;;2.80;99.90;;;;;;5059565;28;20945;-71
2023/03/11 01:05:24;;;;;;;1.50;1.40;;;2.90;99.90;;;;;;5051770;28;20553;-71
2023/03/11 01:07:49;;;;;;;1.47;1.37;;;2.90;99.90;;;;;;5050200;28;20550;-71
2023/03/11 01:10:15;;;;;;;3.87;1.60;;;2.90;99.90;;;;;;5058340;28;20542;-71
2023/03/11 01:12:42;;;;;;;1.63;1.53;;;2.80;99.90;;;;;;5066846;28;20177;-71
2023/03/11 01:15:13;;;;;;;1.83;1.73;;;2.80;99.90;;;;;;5063645;28;20432;-71
2023/03/11 01:17:39;;;;;;;3.43;1.70;;;2.90;99.90;;;;;;5051461;28;20431;-71
2023/03/11 01:20:07;;;;;;;2.40;1.87;;;2.90;99.90;;;;;;5051750;28;20486;-71
2023/03/11 01:22:32;;;;;;;2.07;1.87;;;2.80;99.90;;;;;;5040472;28;20185;-71
2023/03/11 01:24:58;;;;;;;2.70;2.10;;;2.80;99.90;;;;;;5046777;28;20470;-71
2023/03/11 01:27:24;;;;;;;1.97;1.83;;;2.80;99.90;;;;;;5065321;28;20249;-72
2023/03/11 01:29:49;;;;;;;6.83;1.80;;;2.70;99.90;;;;;;5061915;28;20228;-71
2023/03/11 01:32:15;;;;;;;1.63;1.53;;;2.60;99.90;;;;;;5048937;28;20869;-71
2023/03/11 01:34:40;;;;;;;2.10;1.90;;;2.60;99.90;;;;;;5048406;28;20181;-71
2023/03/11 01:37:06;;;;;;;2.93;1.83;;;2.60;99.90;;;;;;5063973;28;20185;-71
2023/03/11 01:39:31;;;;;;;3.10;1.53;;;2.50;99.90;;;;;;5061974;28;20207;-71
2023/03/11 01:41:57;;;;;;;2.30;1.57;;;2.40;99.90;;;;;;5054363;28;20188;-71
2023/03/11 01:44:22;;;;;;;2.07;1.77;;;2.30;99.90;;;;;;5053494;28;20235;-71
2023/03/11 01:46:51;;;;;;;2.63;1.57;;;2.30;99.90;;;;;;5049264;28;20213;-71
2023/03/11 01:49:17;;;;;;;7.57;2.47;;;2.20;99.90;;;;;;5060896;28;20208;-71
2023/03/11 01:51:48;;;;;;;1.87;1.70;;;2.10;99.90;;;;;;5063166;28;20431;-71
2023/03/11 01:54:36;;;;;;;1.40;1.30;;;2.10;99.90;;;;;;5063935;28;20430;-71
2023/03/11 01:57:05;;;;;;;1.40;1.30;;;2.10;99.90;;;;;;5041267;28;20472;-69
2023/03/11 01:59:35;;;;;;;1.60;1.50;;;2.10;99.90;;;;;;5058303;28;20454;-69
2023/03/11 02:02:00;;;;;;;1.40;1.30;;;2.10;99.90;;;;;;5059921;28;20448;-69
2023/03/11 02:04:28;;;;;;;1.60;1.50;;;2.10;99.90;;;;;;5058272;28;20468;-69
2023/03/11 02:06:55;;;;;;;2.57;1.40;;;2.10;99.90;;;;;;5047697;28;20587;-69
2023/03/11 02:09:22;;;;;;;2.43;1.37;;;2.20;99.90;;;;;;5052438;28;20466;-71
2023/03/11 02:11:49;;;;;;;8.20;1.37;;;2.20;99.90;;;;;;5064743;28;20433;-71
2023/03/11 02:14:14;;;;;;;1.80;1.70;;;2.20;99.90;;;;;;5063496;28;21005;-71
2023/03/11 02:16:40;;;;;;;1.70;1.60;;;2.20;99.90;;;;;;5046952;28;20495;-69
2023/03/11 02:19:44;;;;;;;2.23;1.80;;;2.20;99.90;;;;;;5053782;28;20236;-69
2023/03/11 02:22:11;;;;;;;3.77;1.53;;;2.20;99.90;;;;;;5067624;28;20641;-69
2023/03/11 02:24:53;;;;;;;1.43;1.33;;;2.20;99.90;;;;;;5059437;28;20431;-69
2023/03/11 02:27:21;;;;;;;2.67;1.70;;;2.10;99.90;;;;;;5060605;28;20537;-69
2023/03/11 02:29:48;;;;;;;3.77;1.90;;;2.20;99.90;;;;;;5048896;28;20456;-70
2023/03/11 02:32:14;;;;;;;2.70;1.67;;;2.20;99.90;;;;;;5061972;28;20950;-70
2023/03/11 02:34:40;;;;;;;2.73;1.60;;;2.10;99.90;;;;;;5053320;28;20436;-69
2023/03/11 02:37:09;;;;;;;2.13;1.60;;;2.10;99.90;;;;;;5062581;28;20526;-70
2023/03/11 02:39:43;;;;;;;2.20;1.83;;;2.10;99.90;;;;;;5060509;28;20468;-70
2023/03/11 02:42:12;;;;;;;1.60;1.50;;;2.00;99.90;;;;;;5049341;28;20580;-70
2023/03/11 02:44:41;;;;;;;1.40;1.30;;;2.00;99.90;;;;;;5058712;28;20830;-70
2023/03/11 02:47:07;;;;;;;1.80;1.47;;;1.90;99.90;;;;;;5063323;28;20460;-69
2023/03/11 02:49:34;;;;;;;3.17;1.50;;;1.90;99.90;;;;;;5064881;28;20540;-70
2023/03/11 02:51:59;;;;;;;3.10;1.43;;;1.80;99.90;;;;;;5045846;28;20428;-70
2023/03/11 02:54:25;;;;;;;2.70;1.80;;;1.80;99.90;;;;;;5056797;28;20449;-70
2023/03/11 02:56:50;;;;;;;3.50;1.33;;;1.70;99.90;;;;;;5060093;28;20194;-70
2023/03/11 02:59:16;;;;;;;2.40;1.47;;;1.70;99.90;;;;;;5061424;28;20206;-69
2023/03/11 03:01:42;;;;;;;3.13;1.57;;;1.60;99.90;;;;;;5059561;28;20185;-69
2023/03/11 03:04:07;;;;;;;2.40;1.60;;;1.60;99.90;;;;;;5052954;28;20252;-69
2023/03/11 03:06:33;;;;;;;1.30;1.20;;;1.60;99.90;;;;;;5052755;28;20247;-69
2023/03/11 03:08:58;;;;;;;1.67;1.57;;;1.50;99.90;;;;;;5051276;28;20198;-70
2023/03/11 03:11:24;;;;;;;1.73;1.60;;;1.50;99.90;;;;;;5065784;28;20185;-69
2023/03/11 03:13:49;;;;;;;6.13;1.83;;;1.50;99.90;;;;;;5064902;28;20185;-70
2023/03/11 03:16:15;;;;;;;1.90;1.07;;;1.40;99.90;;;;;;5050762;28;20189;-69
2023/03/11 03:18:40;;;;;;;2.17;1.10;;;1.40;99.90;;;;;;5048220;28;20206;-69
2023/03/11 03:21:06;;;;;;;1.83;1.20;;;1.30;99.90;;;;;;5050457;28;20551;-70
2023/03/11 03:23:34;;;;;;;1.40;1.30;;;1.30;99.90;;;;;;5057678;28;20174;-69
2023/03/11 03:26:00;;;;;;;3.27;1.40;;;1.20;99.90;;;;;;5062369;28;20177;-69
2023/03/11 03:28:26;;;;;;;2.13;1.40;;;1.20;99.90;;;;;;5049558;28;20468;-69
2023/03/11 03:30:51;;;;;;;2.00;1.27;;;1.10;99.90;;;;;;5050667;28;20454;-69
2023/03/11 03:33:17;;;;;;;1.30;1.20;;;1.10;99.90;;;;;;5055810;28;20181;-69
2023/03/11 03:35:44;;;;;;;3.03;1.50;;;1.10;99.90;;;;;;5059688;28;20169;-69
2023/03/11 03:38:10;;;;;;;4.10;1.83;;;1.00;99.90;;;;;;5056942;28;20436;-69
2023/03/11 03:40:36;;;;;;;2.80;1.60;;;1.00;99.90;;;;;;5050039;28;20470;-69
2023/03/11 03:43:02;;;;;;;2.07;1.60;;;1.00;99.90;;;;;;5057115;28;20836;-69
2023/03/11 03:45:28;;;;;;;4.70;1.40;;;1.00;99.90;;;;;;5064779;28;20497;-69
2023/03/11 03:47:54;;;;;;;4.07;1.60;;;0.90;99.90;;;;;;5056572;28;20782;-69
2023/03/11 03:50:19;;;;;;;1.30;1.20;;;0.90;99.90;;;;;;5054199;28;20221;-69
2023/03/11 03:52:45;;;;;;;6.50;1.60;;;0.90;99.90;;;;;;5051548;28;20475;-69
2023/03/11 03:55:11;;;;;;;1.90;1.47;;;0.90;99.90;;;;;;5052893;28;20181;-69
2023/03/11 03:57:36;;;;;;;2.00;1.07;;;0.80;99.90;;;;;;5058551;28;20180;-69
2023/03/11 04:00:03;;;;;;;3.00;1.90;;;0.90;99.90;;;;;;5061698;28;20236;-69
2023/03/11 04:02:30;;;;;;;4.40;1.47;;;0.80;99.90;;;;;;5049636;28;20224;-69
2023/03/11 04:04:55;;;;;;;5.80;1.57;;;0.80;99.90;;;;;;5049391;28;20444;-69
2023/03/11 04:07:21;;;;;;;3.60;2.50;;;0.80;99.90;;;;;;5050847;28;20546;-69
2023/03/11 04:09:47;;;;;;;8.40;2.87;;;0.70;99.90;;;;;;5060231;28;20456;-69
2023/03/11 04:12:14;;;;;;;1.70;1.20;;;0.70;99.90;;;;;;5059849;28;20547;-69
2023/03/11 04:14:40;;;;;;;2.50;1.23;;;0.70;99.90;;;;;;5052266;28;20513;-69
2023/03/11 04:17:07;;;;;;;3.57;1.87;;;0.70;99.90;;;;;;5051328;28;20964;-70
2023/03/11 04:19:33;;;;;;;1.70;1.60;;;0.70;99.90;;;;;;5050918;28;20467;-69
2023/03/11 04:21:58;;;;;;;2.37;1.63;;;0.70;99.90;;;;;;5053354;28;20941;-69
2023/03/11 04:24:24;;;;;;;3.40;1.53;;;0.70;99.90;;;;;;5063873;28;20188;-70
2023/03/11 04:26:49;;;;;;;5.00;2.17;;;0.60;99.90;;;;;;5055257;28;20577;-70
2023/03/11 04:29:15;;;;;;;2.97;1.47;;;0.70;99.90;;;;;;5051706;28;20197;-70
2023/03/11 04:31:40;;;;;;;5.30;1.57;;;0.70;99.90;;;;;;5059604;28;20204;-70
2023/03/11 04:34:06;;;;;;;2.67;2.00;;;0.70;99.90;;;;;;5061590;28;20331;-70
2023/03/11 04:36:31;;;;;;;1.50;1.40;;;0.70;99.90;;;;;;5062521;28;20788;-70
2023/03/11 04:38:57;;;;;;;1.37;1.27;;;0.60;99.90;;;;;;5049977;28;20209;-70
2023/03/11 04:41:22;;;;;;;1.47;1.13;;;0.60;99.90;;;;;;5058576;28;20176;-69
2023/03/11 04:43:48;;;;;;;1.20;1.10;;;0.70;99.90;;;;;;5060583;28;20675;-70
2023/03/11 04:46:13;;;;;;;1.50;1.40;;;0.60;99.90;;;;;;5064086;28;20186;-70
2023/03/11 04:48:39;;;;;;;2.20;1.50;;;0.60;99.90;;;;;;5058226;28;20246;-70
2023/03/11 04:51:04;;;;;;;2.37;1.50;;;0.50;99.90;;;;;;5047635;28;20180;-70
2023/03/11 04:53:30;;;;;;;1.37;1.23;;;0.60;99.90;;;;;;5058283;28;20186;-70
2023/03/11 04:55:56;;;;;;;5.67;1.70;;;0.40;99.90;;;;;;5049636;28;20181;-70
2023/03/11 04:58:21;;;;;;;1.77;1.43;;;0.40;99.90;;;;;;5057377;28;20250;-70
2023/03/11 05:00:47;;;;;;;2.03;1.80;;;0.40;99.90;;;;;;5058985;28;20185;-69
2023/03/11 05:03:12;;;;;;;2.00;1.50;;;0.40;99.90;;;;;;5051004;28;20196;-69
2023/03/11 05:05:38;;;;;;;1.83;1.33;;;0.30;99.90;;;;;;5058534;28;20182;-70
2023/03/11 05:08:04;;;;;;;1.50;1.40;;;0.30;99.90;;;;;;5060523;28;20193;-70
2023/03/11 05:10:29;;;;;;;2.00;1.80;;;0.30;99.90;;;;;;5057890;28;20192;-70
2023/03/11 05:12:56;;;;;;;3.90;1.40;;;0.20;99.90;;;;;;5055991;28;20464;-70
2023/03/11 05:15:21;;;;;;;4.00;1.73;;;0.30;99.90;;;;;;5046634;28;20190;-70
2023/03/11 05:17:47;;;;;;;3.10;1.30;;;0.30;99.90;;;;;;5059086;28;20440;-70
2023/03/11 05:20:12;;;;;;;0.93;0.93;;;0.30;99.90;;;;;;5060543;28;20216;-70
2023/03/11 05:22:38;;;;;;;3.30;2.20;;;0.30;99.90;;;;;;5049118;28;20647;-70
2023/03/11 05:25:04;;;;;;;5.63;1.50;;;0.30;99.90;;;;;;5047265;28;20200;-70
2023/03/11 05:27:30;;;;;;;2.80;1.50;;;0.30;99.90;;;;;;5051128;28;20843;-69
2023/03/11 05:29:56;;;;;;;5.93;1.50;;;0.30;99.90;;;;;;5061714;28;20493;-68
2023/03/11 05:32:21;;;;;;;1.57;1.30;;;0.30;99.90;;;;;;5046072;28;20622;-69
2023/03/11 05:34:47;;;;;;;1.83;1.20;;;0.30;99.90;;;;;;5050212;28;20647;-69
2023/03/11 05:37:13;;;;;;;3.30;1.80;;;0.30;99.90;;;;;;5063383;28;20184;-69
2023/03/11 05:39:38;;;;;;;3.30;1.50;;;0.30;99.90;;;;;;5061288;28;20833;-69
2023/03/11 05:42:04;;;;;;;1.80;1.50;;;0.30;99.90;;;;;;5063467;28;20178;-68
2023/03/11 05:44:31;;;;;;;4.37;1.60;;;0.30;99.90;;;;;;5058036;28;20543;-69
2023/03/11 05:46:56;;;;;;;6.90;1.77;;;0.30;99.90;;;;;;5063051;28;20459;-69
2023/03/11 05:49:22;;;;;;;2.50;1.20;;;0.30;99.90;;;;;;5062455;28;20509;-69
2023/03/11 05:51:49;;;;;;;1.77;1.30;;;0.30;99.90;;;;;;5062666;28;20177;-69
2023/03/11 05:54:15;;;;;;;12.57;1.67;;;0.30;99.90;;;;;;5068772;28;20659;-70
2023/03/11 05:56:41;;;;;;;1.30;1.20;;;0.30;99.90;;;;;;5056600;28;20471;-70
2023/03/11 05:59:08;;;;;;;1.80;1.37;;;0.30;99.90;;;;;;5055291;28;20470;-70
2023/03/11 06:01:34;;;;;;;2.40;1.47;;;0.30;99.90;;;;;;5066005;28;20432;-69
2023/03/11 06:04:00;;;;;;;2.77;1.30;;;0.30;99.90;;;;;;5063694;28;20439;-70
2023/03/11 06:06:26;;;;;;;6.60;2.57;;;0.30;99.90;;;;;;5062348;28;20436;-70
2023/03/11 06:08:52;;;;;;;7.93;1.80;;;0.30;99.90;;;;;;5052381;28;20209;-70
2023/03/11 06:11:18;;;;;;;3.10;1.87;;;0.30;99.90;;;;;;5062991;28;20430;-70
2023/03/11 06:13:44;;;;;;;3.93;1.83;;;0.30;99.90;;;;;;5058667;28;20868;-70
2023/03/11 06:16:09;;;;;;;3.37;1.60;;;0.30;99.90;;;;;;5068657;28;20189;-70
2023/03/11 06:18:35;;;;;;;2.47;1.50;;;0.50;99.90;;;;;;5054101;28;20244;-70
2023/03/11 06:21:02;;;;;;;2.47;1.80;;;0.50;99.90;;;;;;5044927;28;20221;-70
2023/03/11 06:23:29;;;;;;;1.60;1.50;;;0.80;99.90;;;;;;5054260;28;20439;-70
2023/03/11 06:26:00;;;;;;;3.07;2.20;;;0.90;99.90;;;;;;5069089;28;20515;-70
2023/03/11 06:28:26;;;;;;;4.90;1.20;;;1.10;99.90;;;;;;5055668;28;20474;-70
2023/03/11 06:30:52;;;;;;;4.60;1.60;;;1.30;99.90;;;;;;5051982;28;20535;-70
2023/03/11 06:33:18;;;;;;;1.40;1.30;;;1.50;99.90;;;;;;5053228;28;20527;-70
2023/03/11 06:35:43;;;;;;;1.50;1.40;;;1.60;99.90;;;;;;5047751;28;20185;-70
2023/03/11 06:38:09;;;;;;;3.83;1.77;;;1.80;99.90;;;;;;5061186;28;20184;-70
2023/03/11 06:40:36;;;;;;;2.87;1.40;;;1.90;99.90;;;;;;5051020;28;20450;-70
2023/03/11 06:43:01;;;;;;;2.87;1.80;;;1.80;99.90;;;;;;5061213;28;20192;-70
2023/03/11 06:45:27;;;;;;;6.20;2.13;;;1.90;99.90;;;;;;5064277;28;20431;-70
2023/03/11 06:47:53;;;;;;;4.73;1.90;;;2.00;99.90;;;;;;5065562;28;20207;-70
2023/03/11 06:50:18;;;;;;;2.50;1.73;;;2.00;99.90;;;;;;5068909;28;20444;-70
2023/03/11 06:52:44;;;;;;;4.80;1.90;;;2.10;99.90;;;;;;5041183;28;20670;-70
2023/03/11 06:55:10;;;;;;;1.90;1.40;;;2.00;99.90;;;;;;5051190;28;20642;-70
2023/03/11 06:57:35;;;;;;;3.73;1.67;;;2.00;99.90;;;;;;5052551;28;20185;-70
2023/03/11 07:00:01;;;;;;;3.70;1.80;;;2.20;99.90;;;;;;5059248;28;20681;-70
2023/03/11 07:02:29;;;;;;;2.97;1.67;;;2.10;99.90;;;;;;5063394;28;20552;-70
2023/03/11 07:04:54;;;;;;;2.00;1.17;;;2.30;99.90;;;;;;5053507;28;20431;-70
2023/03/11 07:07:20;;;;;;;1.90;1.33;;;2.50;99.90;;;;;;5062962;28;20669;-70
2023/03/11 07:09:45;;;;;;;3.80;1.53;;;2.80;99.90;;;;;;5057734;28;20276;-70
2023/03/11 07:12:11;;;;;;;2.80;1.53;;;3.20;99.90;;;;;;5068282;28;20183;-70
2023/03/11 07:14:36;;;;;;;5.13;1.43;;;3.50;99.90;;;;;;5061344;28;20533;-70
2023/03/11 07:17:02;;;;;;;4.10;1.43;;;3.90;99.90;;;;;;5051920;28;20213;-70
2023/03/11 07:19:27;;;;;;;3.43;1.83;;;3.90;99.90;;;;;;5066510;22;20222;-72
2023/03/11 07:21:53;;;;;;;4.43;1.33;;;4.30;99.90;;;;;;5031581;28;20186;-72
2023/03/11 07:24:18;;;;;;;3.43;1.53;;;4.50;99.90;;;;;;5034277;28;20188;-70
2023/03/11 07:26:44;;;;;;;6.60;3.20;;;4.80;99.90;;;;;;5029392;28;20302;-69
2023/03/11 07:29:09;;;;;;;5.37;1.80;;;4.90;99.90;;;;;;5027925;28;20240;-70
2023/03/11 07:31:36;;;;;;;2.90;1.83;;;5.20;99.90;;;;;;5023190;28;20174;-70
2023/03/11 07:34:04;;;;;;;4.30;2.00;;;5.40;99.90;;;;;;5017337;28;20629;-70
2023/03/11 07:36:30;;;;;;;2.40;1.90;;;5.20;99.90;;;;;;5012984;28;20953;-70
2023/03/11 07:38:58;;;;;;;1.77;1.00;;;5.30;99.90;;;;;;5017075;28;20599;-69
2023/03/11 07:41:25;;;;;;;5.73;1.50;;;5.40;99.90;;;;;;5015068;28;20437;-70
2023/03/11 07:43:54;;;;;;;2.07;1.20;;;5.50;99.90;;;;;;5015431;28;20532;-70
2023/03/11 07:46:22;;;;;;;7.73;1.57;;;5.80;99.90;;;;;;5010141;28;20450;-69
2023/03/11 07:48:48;;;;;;;3.27;1.60;;;5.90;99.90;;;;;;5011516;28;20434;-70
2023/03/11 07:51:17;;;;;;;6.57;2.13;;;6.20;99.90;;;;;;5017043;28;20433;-72
2023/03/11 07:53:43;;;;;;;4.10;1.33;;;6.50;99.90;;;;;;5012231;28;20442;-70
2023/03/11 07:56:10;;;;;;;1.57;1.20;;;6.70;99.90;;;;;;5015410;28;20441;-70
2023/03/11 07:58:36;;;;;;;3.87;1.37;;;6.80;99.90;;;;;;5019911;28;20190;-70
2023/03/11 08:01:05;;;;;;;2.27;1.23;;;6.80;99.90;;;;;;5013787;28;20445;-70
2023/03/11 08:03:31;;;;;;;6.37;1.80;;;7.20;99.90;;;;;;5011137;28;20449;-70
2023/03/11 08:05:57;;;;;;;2.00;1.13;;;7.20;99.90;;;;;;5018935;28;20544;-70
2023/03/11 08:08:22;;;;;;;4.13;1.00;;;7.10;99.90;;;;;;5011654;28;20509;-74
2023/03/11 08:10:48;;;;;;;3.03;1.77;;;7.20;99.90;;;;;;5012321;28;20691;-70
2023/03/11 08:13:13;;;;;;;4.30;1.17;;;7.70;99.90;;;;;;5013856;28;20519;-70
2023/03/11 08:15:39;;;;;;;7.13;4.17;;;7.90;99.90;;;;;;5018064;28;20210;-70
2023/03/11 08:18:05;;;;;;;2.43;1.30;;;8.50;99.90;;;;;;5012371;28;20565;-73
2023/03/11 08:20:30;;;;;;;1.23;1.13;;;8.50;98.20;;;;;;5011273;28;21246;-70
2023/03/11 08:22:56;;;;;;;3.03;1.37;;;8.60;97.20;;;;;;5019819;28;20667;-71
2023/03/11 08:25:21;;;;;;;2.60;1.30;;;8.50;95.40;;;;;;5009972;28;20562;-70
2023/03/11 08:27:47;;;;;;;2.57;1.13;;;8.60;97.00;;;;;;5011583;28;20626;-71
2023/03/11 08:30:13;;;;;;;2.87;1.40;;;9.30;94.40;;;;;;5009297;28;20555;-70
2023/03/11 08:32:39;;;;;;;3.47;1.60;;;9.60;93.40;;;;;;5017991;28;20437;-70
2023/03/11 08:35:05;;;;;;;2.70;1.80;;;9.80;92.30;;;;;;5009160;28;20183;-71
2023/03/11 08:37:30;;;;;;;5.30;1.47;;;9.60;92.50;;;;;;5008542;28;20829;-70
2023/03/11 08:39:56;;;;;;;2.10;1.53;;;9.10;92.80;;;;;;5008428;28;20198;-70
2023/03/11 08:42:22;;;;;;;4.03;1.90;;;9.10;94.10;;;;;;5004396;28;20237;-70
2023/03/11 08:44:47;;;;;;;3.10;1.50;;;9.50;92.10;;;;;;5006524;28;20209;-70
2023/03/11 08:47:13;;;;;;;2.50;1.60;;;9.60;92.00;;;;;;5010637;28;20207;-70
2023/03/11 08:49:39;;;;;;;5.83;1.93;;;9.10;92.00;;;;;;5015625;28;20202;-71
2023/03/11 08:52:04;;;;;;;3.93;1.40;;;9.20;91.60;;;;;;5004341;28;20259;-70
2023/03/11 08:54:31;;;;;;;3.97;1.90;;;9.00;91.10;;;;;;5019005;28;20488;-70
2023/03/11 08:57:01;;;;;;;3.27;2.53;;;9.50;91.80;;;;;;5009392;28;20207;-71
2023/03/11 08:59:27;;;;;;;3.80;1.50;;;10.30;90.20;;;;;;5014947;28;20488;-70
2023/03/11 09:01:53;;;;;;;2.83;1.50;;;10.90;86.30;;;;;;5003047;28;20446;-70
2023/03/11 09:04:18;;;;;;;2.70;1.47;;;10.90;80.30;;;;;;5009695;28;20442;-70
2023/03/11 09:06:44;;;;;;;2.70;1.40;;;11.20;81.70;;;;;;5017359;28;20241;-70
2023/03/11 09:09:11;;;;;;;1.93;1.30;;;11.30;80.50;;;;;;5011380;28;20218;-71
2023/03/11 09:11:37;;;;;;;1.90;1.53;;;11.60;76.30;;;;;;5011423;28;20471;-70
2023/03/11 09:14:03;;;;;;;3.20;1.53;;;10.60;75.10;;;;;;5004652;28;20442;-70
2023/03/11 09:16:28;;;;;;;1.90;1.13;;;9.50;77.00;;;;;;5016614;28;20175;-70
2023/03/11 09:18:54;;;;;;;1.57;0.70;;;9.00;78.00;;;;;;5003865;28;20491;-70
2023/03/11 09:21:20;;;;;;;1.93;1.23;;;8.70;78.80;;;;;;5008272;28;20187;-70
2023/03/11 09:23:46;;;;;;;2.37;1.53;;;9.70;80.70;;;;;;5007558;28;20651;-71
2023/03/11 09:26:13;;;;;;;1.97;1.60;;;11.50;74.10;;;;;;5020752;28;20973;-71
2023/03/11 09:28:39;;;;;;;4.23;1.30;;;13.40;66.90;;;;;;5014112;28;20462;-70
2023/03/11 09:31:05;;;;;;;3.30;1.47;;;14.50;59.60;;;;;;5004327;28;21425;-70
2023/03/11 09:33:34;;;;;;;2.67;1.10;;;15.60;55.50;;;;;;5018180;28;20437;-70
2023/03/11 09:36:00;;;;;;;2.37;2.17;;;16.40;51.00;;;;;;5008851;28;20218;-70
2023/03/11 09:38:25;;;;;;;2.30;1.77;;;16.90;49.00;;;;;;5008782;28;20973;-70
2023/03/11 09:41:12;;;;;;;4.20;2.37;;;17.80;46.60;;;;;;5005923;28;20207;-69
2023/03/11 09:44:06;;;;;;;1.93;1.60;;;18.10;44.70;;;;;;5008055;28;20191;-70
2023/03/11 09:47:09;;;;;;;2.40;1.53;;;17.60;44.70;;;;;;5008709;28;20495;-70
2023/03/11 09:50:04;;;;;;;1.50;1.20;;;18.90;43.20;;;;;;5004970;28;20527;-70
2023/03/11 09:52:36;;;;;;;2.10;1.40;;;19.40;40.10;;;;;;5001532;28;20445;-71
2023/03/11 09:55:04;;;;;;;2.53;1.07;;;17.90;38.90;;;;;;5006898;28;20438;-71
2023/03/11 09:57:33;;;;;;;2.63;1.00;;;16.80;40.10;;;;;;5006226;28;20441;-71
2023/03/11 10:00:00;;;;;;;1.70;0.97;;;15.40;41.70;;;;;;5013725;28;20457;-71
2023/03/11 10:02:26;;;;;;;1.47;1.37;;;13.90;43.00;;;;;;5005611;28;20438;-70
2023/03/11 10:05:07;;;;;;;4.80;3.67;;;13.00;44.00;;;;;;5005708;28;20508;-70
2023/03/11 10:07:40;;;;;;;3.47;1.93;;;12.10;48.30;;;;;;4999874;28;21037;-71
2023/03/11 10:10:10;;;;;;;3.53;2.40;;;12.70;47.90;;;;;;5015654;28;20453;-70
2023/03/11 10:12:58;;;;;;;1.03;1.03;;;12.10;48.10;;;;;;5006543;28;20436;-71
2023/03/11 10:15:47;;;;;;;2.20;1.40;;;13.10;47.80;;;;;;5003027;28;20973;-71
2023/03/11 10:18:51;;;;;;;2.50;1.40;;;15.10;45.10;;;;;;5010803;28;20780;-72
2023/03/11 10:21:37;;;;;;;4.60;1.63;;;18.30;41.40;;;;;;5016158;28;21211;-71
2023/03/11 10:24:39;;;;;;;1.50;1.40;;;18.90;39.50;;;;;;5012256;28;20429;-72
2023/03/11 10:27:36;;;;;;;2.17;1.53;;;18.90;39.70;;;;;;5021131;28;20457;-71
2023/03/11 10:30:12;;;;;;;1.93;1.53;;;17.10;39.20;;;;;;5012562;28;20471;-71
2023/03/11 10:32:45;;;;;;;2.40;2.20;;;15.50;41.00;;;;;;5010941;28;20811;-70
2023/03/11 10:35:15;;;;;;;2.13;1.40;;;13.70;44.10;;;;;;5017440;28;20445;-71
2023/03/11 10:37:57;;;;;;;3.83;2.80;;;12.70;46.30;;;;;;5023573;28;20447;-70
2023/03/11 10:40:34;;;;;;;5.13;2.93;;;11.90;48.30;;;;;;5009441;28;20464;-69
2023/03/11 10:43:10;;;;;;;1.50;1.23;;;11.00;50.30;;;;;;5006806;28;20442;-74
2023/03/11 10:45:40;;;;;;;2.57;1.80;;;10.00;51.90;;;;;;5011499;28;20449;-71
2023/03/11 10:48:16;;;;;;;2.47;1.40;;;10.10;54.10;;;;;;5026558;28;20479;-71
2023/03/11 10:50:56;;;;;;;4.70;2.30;;;12.90;50.30;;;;;;5021400;28;20448;-73
2023/03/11 10:53:22;;;;;;;3.03;1.80;;;15.00;45.20;;;;;;5011064;28;20468;-71
2023/03/11 10:55:53;;;;;;;1.80;1.20;;;17.30;42.00;;;;;;5023046;28;20461;-71
2023/03/11 10:58:24;;;;;;;3.30;2.30;;;17.90;38.90;;;;;;5011977;28;20190;-71
2023/03/11 11:01:10;;;;;;;2.87;1.90;;;19.30;38.50;;;;;;5013685;28;20832;-71
2023/03/11 11:03:35;;;;;;;3.57;1.70;;;18.90;39.10;;;;;;5000783;28;20433;-71
2023/03/11 11:06:05;;;;;;;6.00;1.70;;;20.80;37.70;;;;;;5015488;28;20889;-71
2023/03/11 11:08:31;;;;;;;3.47;1.60;;;22.20;35.30;;;;;;5022454;28;20209;-71
2023/03/11 11:11:00;;;;;;;3.60;1.40;;;21.60;33.90;;;;;;5011463;28;20820;-71
2023/03/11 11:13:34;;;;;;;4.03;1.90;;;18.80;35.40;;;;;;5008460;28;20438;-71
2023/03/11 11:16:03;;;;;;;3.17;1.60;;;16.60;38.60;;;;;;5012223;28;20476;-71
2023/03/11 11:18:51;;;;;;;6.57;4.00;;;16.20;39.50;;;;;;5015870;28;20445;-71
2023/03/11 11:21:38;;;;;;;4.73;4.23;;;17.10;38.10;;;;;;5007769;28;20519;-71
2023/03/11 11:24:09;;;;;;;5.50;5.00;;;18.00;37.70;;;;;;5024632;28;20441;-72
2023/03/11 11:26:34;;;;;;;2.70;2.50;;;20.00;35.90;;;;;;5013058;28;20441;-72
2023/03/11 11:29:09;;;;;;;3.80;2.80;;;21.50;34.50;;;;;;5006011;28;20458;-71
2023/03/11 11:31:39;;;;;;;2.13;1.93;;;23.40;32.10;;;;;;5009454;28;20177;-71
2023/03/11 11:34:21;;;;;;;2.87;2.40;;;23.40;30.80;;;;;;5006621;28;20426;-72
2023/03/11 11:36:47;;;;;;;4.00;1.67;;;19.60;31.60;;;;;;5008248;28;20450;-71
2023/03/11 11:39:20;;;;;;;3.37;1.70;;;15.70;35.60;;;;;;5009773;28;20457;-70
2023/03/11 11:41:48;;;;;;;1.80;1.70;;;15.00;38.30;;;;;;5009870;28;20205;-71
2023/03/11 11:44:19;;;;;;;2.83;1.43;;;14.70;39.10;;;;;;5018766;28;20436;-71
2023/03/11 11:46:54;;;;;;;2.83;1.80;;;14.80;39.20;;;;;;5019288;28;20451;-70
2023/03/11 11:49:33;;;;;;;2.33;2.13;;;14.90;38.20;;;;;;5022167;28;20452;-71
2023/03/11 11:52:07;;;;;;;2.97;1.60;;;15.50;38.10;;;;;;5010148;28;20429;-70
2023/03/11 11:54:49;;;;;;;4.33;2.37;;;17.40;36.70;;;;;;5012610;28;20490;-72
2023/03/11 11:57:17;;;;;;;2.23;1.70;;;17.80;34.70;;;;;;5017458;28;22051;-73
2023/03/11 11:59:43;;;;;;;2.10;1.60;;;15.80;35.80;;;;;;5013506;28;20987;-73
2023/03/11 12:02:41;;;;;;;2.73;1.90;;;16.20;36.70;;;;;;5007455;28;20446;-73
2023/03/11 12:05:18;;;;;;;4.80;4.03;;;18.90;34.20;;;;;;5008559;28;20434;-73
2023/03/11 12:08:17;;;;;;;3.40;2.83;;;21.70;31.80;;;;;;5006865;28;20472;-73
2023/03/11 12:10:55;;;;;;;5.73;4.77;;;23.30;30.10;;;;;;5006709;28;20464;-70
2023/03/11 12:13:29;;;;;;;7.47;3.67;;;20.40;30.00;;;;;;5005311;28;20425;-71
2023/03/11 12:16:22;;;;;;;4.20;3.20;;;19.40;31.20;;;;;;5009146;28;20489;-70
2023/03/11 12:18:57;;;;;;;2.93;1.47;;;19.60;31.40;;;;;;5012443;28;20529;-71
2023/03/11 12:21:41;;;;;;;2.00;1.40;;;18.10;33.50;;;;;;5009908;28;20820;-71
2023/03/11 12:24:21;;;;;;;2.60;1.80;;;17.80;33.20;;;;;;5010853;28;20461;-72
2023/03/11 12:26:50;;;;;;;2.60;1.40;;;19.70;31.00;;;;;;5016105;28;20472;-73
2023/03/11 12:29:38;;;;;;;2.43;1.60;;;18.90;31.70;;;;;;5016712;28;20458;-72
2023/03/11 12:32:04;;;;;;;2.53;1.47;;;21.70;29.70;;;;;;5004934;28;20979;-71
2023/03/11 12:34:33;;;;;;;4.37;2.03;;;22.50;28.60;;;;;;5004802;28;20440;-71
2023/03/11 12:37:12;;;;;;;2.63;1.30;;;23.20;27.80;;;;;;5000949;28;20461;-72
2023/03/11 12:39:37;;;;;;;3.50;1.80;;;21.80;28.40;;;;;;5004108;28;20466;-72
2023/03/11 12:42:16;;;;;;;2.73;1.33;;;21.20;29.70;;;;;;5006881;28;20434;-72
2023/03/11 12:44:42;;;;;;;1.57;1.47;;;20.70;29.10;;;;;;5008693;28;20241;-72
2023/03/11 12:47:07;;;;;;;1.83;1.43;;;20.70;28.20;;;;;;5020351;28;20835;-72
2023/03/11 12:49:34;;;;;;;1.50;1.33;;;19.70;29.90;;;;;;5019851;28;20190;-72
2023/03/11 12:52:15;;;;;;;2.80;1.40;;;21.20;29.20;;;;;;5009296;28;20314;-72
2023/03/11 12:55:15;;;;;;;3.80;1.50;;;23.80;28.00;;;;;;5009844;28;20430;-72
2023/03/11 12:57:47;;;;;;;1.87;1.30;;;24.90;26.40;;;;;;5000650;28;20527;-72
2023/03/11 13:00:26;;;;;;;0.93;0.93;;;25.00;25.60;;;;;;5012741;28;20532;-73
2023/03/11 13:03:13;;;;;;;3.17;1.60;;;25.40;25.10;;;;;;5007530;28;20440;-73